If you wish to contribute or participate in the discussions about articles you are invited to join SKYbrary as a registered user

 Actions

Benito Salas Airport

From SKYbrary Wiki

SKNV
Airport
ICAO: SKNV – IATA: NVA
Summary
Name Benito Salas Airport
Region South America and Caribbean
Territory Colombia CO.gif
Location La Manguita, Huila Department
Serving Neiva
Elevation 446.227 m
1,464 ft446.227 m
Coordinates 2° 56' 49.38" N, 75° 17' 34.16" W
Runways
Designator Length Width Surface ROPS
2/20 1792 m5,879.265 ft
40 m131.234 ft
ASP /


METAR
Observation SKNV 202300Z 33003KT 9999 VCSH FEW045 BKN120 27/23 A2982 RMK VCSH W
Station Neiva / Benito Salas
Date/Time 20 March 2019 23:00:00
Wind direction 330°
Wind speed 03 kts
Lowest cloud amount few clouds
Temperature 27°C
Dew point 23°C
Humidity 78%
QNH hPa
Weather condition in vicinity: showers

Benito Salas Airport, locally known as La Manguita airport, is an airport that serves the city of Neiva, the capital of the Huila Department in Colombia.

Climatology

Tropical monsoon climate (Köppen climate classification Am)

Maps

Terrain

Loading map...

Airport Layout

Loading map...


Accidents & Serious Incidents at or in vicinity of SKNV

None on SKYbrary